sensor_id;sensor_type;location;lat;lon;timestamp;temperature;humidity
46562;DHT22;32289;42.688;23.330;2023-01-15T00:01:34;4.10;99.90
46562;DHT22;32289;42.688;23.330;2023-01-15T00:05:15;4.10;99.90
46562;DHT22;32289;42.688;23.330;2023-01-15T00:08:56;4.10;99.90
46562;DHT22;32289;42.688;23.330;2023-01-15T00:12:37;4.10;99.90
46562;DHT22;32289;42.688;23.330;2023-01-15T00:16:26;4.10;99.90
46562;DHT22;32289;42.688;23.330;2023-01-15T00:20:10;4.00;99.90
46562;DHT22;32289;42.688;23.330;2023-01-15T00:23:51;4.00;99.90
46562;DHT22;32289;42.688;23.330;2023-01-15T00:27:50;4.10;99.90
46562;DHT22;32289;42.688;23.330;2023-01-15T00:31:32;4.00;99.90
46562;DHT22;32289;42.688;23.330;2023-01-15T00:35:21;4.10;99.90
46562;DHT22;32289;42.688;23.330;2023-01-15T00:39:04;4.10;99.90
46562;DHT22;32289;42.688;23.330;2023-01-15T00:42:45;4.10;99.90
46562;DHT22;32289;42.688;23.330;2023-01-15T00:46:26;4.10;99.90
46562;DHT22;32289;42.688;23.330;2023-01-15T00:50:10;4.10;99.90
46562;DHT22;32289;42.688;23.330;2023-01-15T00:53:51;4.10;99.90
46562;DHT22;32289;42.688;23.330;2023-01-15T00:57:32;4.10;99.90
46562;DHT22;32289;42.688;23.330;2023-01-15T01:01:13;4.10;99.90
46562;DHT22;32289;42.688;23.330;2023-01-15T01:04:54;4.10;99.90
46562;DHT22;32289;42.688;23.330;2023-01-15T01:08:35;4.10;99.90
46562;DHT22;32289;42.688;23.330;2023-01-15T01:12:15;4.20;99.90
46562;DHT22;32289;42.688;23.330;2023-01-15T01:15:56;4.30;99.90
46562;DHT22;32289;42.688;23.330;2023-01-15T01:19:37;4.20;99.90
46562;DHT22;32289;42.688;23.330;2023-01-15T01:23:18;4.20;99.90
46562;DHT22;32289;42.688;23.330;2023-01-15T01:26:58;4.20;99.90
46562;DHT22;32289;42.688;23.330;2023-01-15T01:30:39;4.20;99.90
46562;DHT22;32289;42.688;23.330;2023-01-15T01:34:20;4.20;99.90
46562;DHT22;32289;42.688;23.330;2023-01-15T01:38:01;4.20;99.90
46562;DHT22;32289;42.688;23.330;2023-01-15T01:41:43;4.20;99.90
46562;DHT22;32289;42.688;23.330;2023-01-15T01:45:30;4.30;99.90
46562;DHT22;32289;42.688;23.330;2023-01-15T01:49:13;4.20;99.90
46562;DHT22;32289;42.688;23.330;2023-01-15T01:53:06;4.30;99.90
46562;DHT22;32289;42.688;23.330;2023-01-15T01:56:48;4.30;99.90
46562;DHT22;32289;42.688;23.330;2023-01-15T02:00:30;4.30;99.90
46562;DHT22;32289;42.688;23.330;2023-01-15T02:04:12;4.20;99.90
46562;DHT22;32289;42.688;23.330;2023-01-15T02:07:53;4.20;99.90
46562;DHT22;32289;42.688;23.330;2023-01-15T02:11:34;4.30;99.90
46562;DHT22;32289;42.688;23.330;2023-01-15T02:15:20;4.10;99.90
46562;DHT22;32289;42.688;23.330;2023-01-15T02:23:26;4.10;99.90
46562;DHT22;32289;42.688;23.330;2023-01-15T02:27:16;4.20;99.90
46562;DHT22;32289;42.688;23.330;2023-01-15T02:34:52;4.20;99.90
46562;DHT22;32289;42.688;23.330;2023-01-15T02:38:37;4.20;99.90
46562;DHT22;32289;42.688;23.330;2023-01-15T02:42:21;4.20;99.90
46562;DHT22;32289;42.688;23.330;2023-01-15T02:46:04;4.10;99.90
46562;DHT22;32289;42.688;23.330;2023-01-15T02:49:47;4.20;99.90
46562;DHT22;32289;42.688;23.330;2023-01-15T02:53:29;4.20;99.90
46562;DHT22;32289;42.688;23.330;2023-01-15T02:57:11;4.10;99.90
46562;DHT22;32289;42.688;23.330;2023-01-15T03:00:55;4.10;99.90
46562;DHT22;32289;42.688;23.330;2023-01-15T03:04:46;4.10;99.90
46562;DHT22;32289;42.688;23.330;2023-01-15T03:08:29;4.30;99.90
46562;DHT22;32289;42.688;23.330;2023-01-15T03:12:18;4.30;99.90
46562;DHT22;32289;42.688;23.330;2023-01-15T03:16:01;4.30;99.90
46562;DHT22;32289;42.688;23.330;2023-01-15T03:20:11;4.30;99.90
46562;DHT22;32289;42.688;23.330;2023-01-15T03:23:54;4.30;99.90
46562;DHT22;32289;42.688;23.330;2023-01-15T03:27:35;4.20;99.90
46562;DHT22;32289;42.688;23.330;2023-01-15T03:31:16;4.10;99.90
46562;DHT22;32289;42.688;23.330;2023-01-15T03:34:57;4.10;99.90
46562;DHT22;32289;42.688;23.330;2023-01-15T03:38:39;4.20;99.90
46562;DHT22;32289;42.688;23.330;2023-01-15T03:42:48;4.30;99.90
46562;DHT22;32289;42.688;23.330;2023-01-15T03:46:49;4.10;99.90
46562;DHT22;32289;42.688;23.330;2023-01-15T03:50:58;4.30;99.90
46562;DHT22;32289;42.688;23.330;2023-01-15T03:54:58;4.30;99.90
46562;DHT22;32289;42.688;23.330;2023-01-15T03:58:52;4.20;99.90
46562;DHT22;32289;42.688;23.330;2023-01-15T04:02:34;4.00;99.90
46562;DHT22;32289;42.688;23.330;2023-01-15T04:06:16;3.90;99.90
46562;DHT22;32289;42.688;23.330;2023-01-15T04:09:57;4.00;99.90
46562;DHT22;32289;42.688;23.330;2023-01-15T04:13:38;4.20;99.90
46562;DHT22;32289;42.688;23.330;2023-01-15T04:17:19;4.20;99.90
46562;DHT22;32289;42.688;23.330;2023-01-15T04:20:59;4.30;99.90
46562;DHT22;32289;42.688;23.330;2023-01-15T04:24:40;4.40;99.90
46562;DHT22;32289;42.688;23.330;2023-01-15T04:28:21;4.20;99.90
46562;DHT22;32289;42.688;23.330;2023-01-15T04:32:02;4.30;99.90
46562;DHT22;32289;42.688;23.330;2023-01-15T04:35:42;4.20;99.90
46562;DHT22;32289;42.688;23.330;2023-01-15T04:39:26;4.10;99.90
46562;DHT22;32289;42.688;23.330;2023-01-15T04:43:12;4.10;99.90
46562;DHT22;32289;42.688;23.330;2023-01-15T04:47:11;4.00;99.90
46562;DHT22;32289;42.688;23.330;2023-01-15T04:50:52;4.00;99.90
46562;DHT22;32289;42.688;23.330;2023-01-15T04:54:32;4.10;99.90
46562;DHT22;32289;42.688;23.330;2023-01-15T04:58:13;4.10;99.90
46562;DHT22;32289;42.688;23.330;2023-01-15T05:01:54;4.10;99.90
46562;DHT22;32289;42.688;23.330;2023-01-15T05:05:34;4.10;99.90
46562;DHT22;32289;42.688;23.330;2023-01-15T05:09:15;4.10;99.90
46562;DHT22;32289;42.688;23.330;2023-01-15T05:12:56;4.10;99.90
46562;DHT22;32289;42.688;23.330;2023-01-15T05:16:37;4.10;99.90
46562;DHT22;32289;42.688;23.330;2023-01-15T05:20:18;4.00;99.90
46562;DHT22;32289;42.688;23.330;2023-01-15T05:24:01;3.90;99.90
46562;DHT22;32289;42.688;23.330;2023-01-15T05:27:42;4.10;99.90
46562;DHT22;32289;42.688;23.330;2023-01-15T05:31:24;4.10;99.90
46562;DHT22;32289;42.688;23.330;2023-01-15T05:35:05;4.10;99.90
46562;DHT22;32289;42.688;23.330;2023-01-15T05:38:46;4.20;99.90
46562;DHT22;32289;42.688;23.330;2023-01-15T05:42:27;4.10;99.90
46562;DHT22;32289;42.688;23.330;2023-01-15T05:46:07;4.10;99.90
46562;DHT22;32289;42.688;23.330;2023-01-15T05:49:48;4.10;99.90
46562;DHT22;32289;42.688;23.330;2023-01-15T05:53:29;4.00;99.90
46562;DHT22;32289;42.688;23.330;2023-01-15T05:57:14;4.10;99.90
46562;DHT22;32289;42.688;23.330;2023-01-15T06:00:55;4.00;99.90
46562;DHT22;32289;42.688;23.330;2023-01-15T06:04:35;4.10;99.90
46562;DHT22;32289;42.688;23.330;2023-01-15T06:08:16;4.10;99.90
46562;DHT22;32289;42.688;23.330;2023-01-15T06:11:57;4.20;99.90
46562;DHT22;32289;42.688;23.330;2023-01-15T06:15:39;4.20;99.90
46562;DHT22;32289;42.688;23.330;2023-01-15T06:19:19;4.20;99.90
46562;DHT22;32289;42.688;23.330;2023-01-15T06:23:00;4.30;99.90
46562;DHT22;32289;42.688;23.330;2023-01-15T06:26:41;4.20;99.90
46562;DHT22;32289;42.688;23.330;2023-01-15T06:30:21;4.30;99.90
46562;DHT22;32289;42.688;23.330;2023-01-15T06:34:02;4.40;99.90
46562;DHT22;32289;42.688;23.330;2023-01-15T06:37:43;4.40;99.90
46562;DHT22;32289;42.688;23.330;2023-01-15T06:41:24;4.50;99.90
46562;DHT22;32289;42.688;23.330;2023-01-15T06:45:24;4.50;99.90
46562;DHT22;32289;42.688;23.330;2023-01-15T06:49:23;4.60;99.90
46562;DHT22;32289;42.688;23.330;2023-01-15T06:53:03;4.70;99.90
46562;DHT22;32289;42.688;23.330;2023-01-15T06:56:44;4.70;99.90
46562;DHT22;32289;42.688;23.330;2023-01-15T07:00:25;4.80;99.90
46562;DHT22;32289;42.688;23.330;2023-01-15T07:04:07;4.70;99.90
46562;DHT22;32289;42.688;23.330;2023-01-15T07:07:48;4.60;99.90
46562;DHT22;32289;42.688;23.330;2023-01-15T07:11:28;4.80;99.90
46562;DHT22;32289;42.688;23.330;2023-01-15T07:15:10;4.80;99.90
46562;DHT22;32289;42.688;23.330;2023-01-15T07:18:51;5.10;99.90
46562;DHT22;32289;42.688;23.330;2023-01-15T07:22:32;4.90;99.90
46562;DHT22;32289;42.688;23.330;2023-01-15T07:26:15;5.10;99.90
46562;DHT22;32289;42.688;23.330;2023-01-15T07:29:56;5.10;99.90
46562;DHT22;32289;42.688;23.330;2023-01-15T07:33:36;4.90;99.90
46562;DHT22;32289;42.688;23.330;2023-01-15T07:37:17;4.90;99.90
46562;DHT22;32289;42.688;23.330;2023-01-15T07:40:58;4.90;99.90
46562;DHT22;32289;42.688;23.330;2023-01-15T07:44:57;5.10;99.90
46562;DHT22;32289;42.688;23.330;2023-01-15T07:48:56;5.30;99.40
46562;DHT22;32289;42.688;23.330;2023-01-15T07:52:55;5.30;97.50
46562;DHT22;32289;42.688;23.330;2023-01-15T07:56:36;5.30;98.40
46562;DHT22;32289;42.688;23.330;2023-01-15T08:00:23;5.40;96.70
46562;DHT22;32289;42.688;23.330;2023-01-15T08:04:04;5.20;97.30
46562;DHT22;32289;42.688;23.330;2023-01-15T08:07:45;5.10;97.00
46562;DHT22;32289;42.688;23.330;2023-01-15T08:11:26;4.90;98.30
46562;DHT22;32289;42.688;23.330;2023-01-15T08:15:26;4.70;98.50
46562;DHT22;32289;42.688;23.330;2023-01-15T08:19:08;4.70;99.00
46562;DHT22;32289;42.688;23.330;2023-01-15T08:22:49;5.10;98.10
46562;DHT22;32289;42.688;23.330;2023-01-15T08:26:30;5.50;97.30
46562;DHT22;32289;42.688;23.330;2023-01-15T08:30:13;6.10;94.50
46562;DHT22;32289;42.688;23.330;2023-01-15T08:33:54;6.20;93.20
46562;DHT22;32289;42.688;23.330;2023-01-15T08:37:35;6.10;93.30
46562;DHT22;32289;42.688;23.330;2023-01-15T08:41:16;6.40;92.90
46562;DHT22;32289;42.688;23.330;2023-01-15T08:44:58;6.00;92.70
46562;DHT22;32289;42.688;23.330;2023-01-15T08:48:38;5.70;93.60
46562;DHT22;32289;42.688;23.330;2023-01-15T08:52:19;5.50;94.40
46562;DHT22;32289;42.688;23.330;2023-01-15T08:56:00;5.70;94.00
46562;DHT22;32289;42.688;23.330;2023-01-15T08:59:41;5.90;92.10
46562;DHT22;32289;42.688;23.330;2023-01-15T09:03:22;6.00;92.40
46562;DHT22;32289;42.688;23.330;2023-01-15T09:07:04;5.50;93.60
46562;DHT22;32289;42.688;23.330;2023-01-15T09:10:45;5.80;93.70
46562;DHT22;32289;42.688;23.330;2023-01-15T09:14:26;6.00;93.60
46562;DHT22;32289;42.688;23.330;2023-01-15T09:18:06;5.80;93.90
46562;DHT22;32289;42.688;23.330;2023-01-15T09:21:50;6.10;93.50
46562;DHT22;32289;42.688;23.330;2023-01-15T09:25:30;6.40;92.40
46562;DHT22;32289;42.688;23.330;2023-01-15T09:29:11;6.50;92.20
46562;DHT22;32289;42.688;23.330;2023-01-15T09:32:52;6.30;92.20
46562;DHT22;32289;42.688;23.330;2023-01-15T09:36:34;6.10;92.50
46562;DHT22;32289;42.688;23.330;2023-01-15T09:40:38;6.50;92.40
46562;DHT22;32289;42.688;23.330;2023-01-15T09:48:22;8.60;83.20
46562;DHT22;32289;42.688;23.330;2023-01-15T09:52:32;7.10;89.70
46562;DHT22;32289;42.688;23.330;2023-01-15T09:56:25;6.50;92.30
46562;DHT22;32289;42.688;23.330;2023-01-15T10:00:17;6.60;92.90
46562;DHT22;32289;42.688;23.330;2023-01-15T10:04:29;6.40;92.80
46562;DHT22;32289;42.688;23.330;2023-01-15T10:08:30;6.50;92.40
46562;DHT22;32289;42.688;23.330;2023-01-15T10:12:25;6.80;91.40
46562;DHT22;32289;42.688;23.330;2023-01-15T10:16:21;6.30;92.50
46562;DHT22;32289;42.688;23.330;2023-01-15T10:20:02;6.60;92.00
46562;DHT22;32289;42.688;23.330;2023-01-15T10:27:45;6.70;90.80
46562;DHT22;32289;42.688;23.330;2023-01-15T10:36:29;6.60;93.50
46562;DHT22;32289;42.688;23.330;2023-01-15T10:44:53;7.60;89.40
46562;DHT22;32289;42.688;23.330;2023-01-15T10:48:43;7.50;89.90
46562;DHT22;32289;42.688;23.330;2023-01-15T10:52:34;7.40;88.20
46562;DHT22;32289;42.688;23.330;2023-01-15T11:00:25;8.20;88.60
46562;DHT22;32289;42.688;23.330;2023-01-15T11:04:10;8.30;87.20
46562;DHT22;32289;42.688;23.330;2023-01-15T11:07:55;7.80;91.90
46562;DHT22;32289;42.688;23.330;2023-01-15T11:11:43;8.40;90.80
46562;DHT22;32289;42.688;23.330;2023-01-15T11:15:44;8.00;90.00
46562;DHT22;32289;42.688;23.330;2023-01-15T11:19:44;8.30;86.80
46562;DHT22;32289;42.688;23.330;2023-01-15T11:23:25;9.10;85.20
46562;DHT22;32289;42.688;23.330;2023-01-15T11:27:06;8.90;83.80
46562;DHT22;32289;42.688;23.330;2023-01-15T11:30:53;9.10;80.60
46562;DHT22;32289;42.688;23.330;2023-01-15T11:34:38;9.40;80.20
46562;DHT22;32289;42.688;23.330;2023-01-15T11:38:19;9.40;79.10
46562;DHT22;32289;42.688;23.330;2023-01-15T11:42:04;9.70;78.10
46562;DHT22;32289;42.688;23.330;2023-01-15T11:46:03;9.50;77.00
46562;DHT22;32289;42.688;23.330;2023-01-15T11:50:16;8.80;79.00
46562;DHT22;32289;42.688;23.330;2023-01-15T11:54:15;9.30;79.10
46562;DHT22;32289;42.688;23.330;2023-01-15T11:57:57;9.40;77.70
46562;DHT22;32289;42.688;23.330;2023-01-15T12:01:53;9.40;78.50
46562;DHT22;32289;42.688;23.330;2023-01-15T12:05:53;9.60;78.80
46562;DHT22;32289;42.688;23.330;2023-01-15T12:21:41;8.10;87.00
46562;DHT22;32289;42.688;23.330;2023-01-15T12:29:16;8.80;82.50
46562;DHT22;32289;42.688;23.330;2023-01-15T12:37:26;8.40;85.20
46562;DHT22;32289;42.688;23.330;2023-01-15T12:45:37;7.60;87.70
46562;DHT22;32289;42.688;23.330;2023-01-15T12:49:31;7.90;85.40
46562;DHT22;32289;42.688;23.330;2023-01-15T12:53:42;7.40;89.70
46562;DHT22;32289;42.688;23.330;2023-01-15T12:57:34;7.30;90.20
46562;DHT22;32289;42.688;23.330;2023-01-15T13:01:34;7.50;90.30
46562;DHT22;32289;42.688;23.330;2023-01-15T13:05:57;7.50;89.80
46562;DHT22;32289;42.688;23.330;2023-01-15T13:13:47;6.80;91.70
46562;DHT22;32289;42.688;23.330;2023-01-15T13:17:52;7.00;91.00
46562;DHT22;32289;42.688;23.330;2023-01-15T13:21:35;7.30;90.80
46562;DHT22;32289;42.688;23.330;2023-01-15T13:33:29;7.40;90.40
46562;DHT22;32289;42.688;23.330;2023-01-15T13:37:22;7.50;89.70
46562;DHT22;32289;42.688;23.330;2023-01-15T13:41:06;7.20;90.60
46562;DHT22;32289;42.688;23.330;2023-01-15T13:44:50;6.90;91.20
46562;DHT22;32289;42.688;23.330;2023-01-15T13:48:35;7.10;91.10
46562;DHT22;32289;42.688;23.330;2023-01-15T13:52:34;6.80;92.10
46562;DHT22;32289;42.688;23.330;2023-01-15T13:56:28;6.80;92.00
46562;DHT22;32289;42.688;23.330;2023-01-15T14:00:32;6.90;92.10
46562;DHT22;32289;42.688;23.330;2023-01-15T14:04:14;6.80;92.00
46562;DHT22;32289;42.688;23.330;2023-01-15T14:07:55;6.80;92.50
46562;DHT22;32289;42.688;23.330;2023-01-15T14:31:45;6.40;92.90
46562;DHT22;32289;42.688;23.330;2023-01-15T14:35:35;6.40;92.80
46562;DHT22;32289;42.688;23.330;2023-01-15T14:39:30;6.40;93.20
46562;DHT22;32289;42.688;23.330;2023-01-15T14:43:18;6.30;93.40
46562;DHT22;32289;42.688;23.330;2023-01-15T14:47:03;6.20;93.80
46562;DHT22;32289;42.688;23.330;2023-01-15T14:50:47;6.10;94.30
46562;DHT22;32289;42.688;23.330;2023-01-15T14:54:28;6.00;95.10
46562;DHT22;32289;42.688;23.330;2023-01-15T15:02:22;5.80;97.00
46562;DHT22;32289;42.688;23.330;2023-01-15T15:06:06;5.70;98.00
46562;DHT22;32289;42.688;23.330;2023-01-15T15:10:04;5.70;98.70
46562;DHT22;32289;42.688;23.330;2023-01-15T15:13:55;5.50;99.90
46562;DHT22;32289;42.688;23.330;2023-01-15T15:21:41;5.30;99.90
46562;DHT22;32289;42.688;23.330;2023-01-15T15:25:26;5.20;99.90
46562;DHT22;32289;42.688;23.330;2023-01-15T15:32:49;5.10;99.90
46562;DHT22;32289;42.688;23.330;2023-01-15T15:36:32;5.00;99.90
46562;DHT22;32289;42.688;23.330;2023-01-15T15:40:16;4.90;99.90
46562;DHT22;32289;42.688;23.330;2023-01-15T15:43:57;4.80;99.90
46562;DHT22;32289;42.688;23.330;2023-01-15T15:47:57;4.70;99.90
46562;DHT22;32289;42.688;23.330;2023-01-15T15:51:56;4.60;99.90
46562;DHT22;32289;42.688;23.330;2023-01-15T15:55:39;4.50;99.90
46562;DHT22;32289;42.688;23.330;2023-01-15T15:59:38;4.40;99.90
46562;DHT22;32289;42.688;23.330;2023-01-15T16:03:24;4.40;99.90
46562;DHT22;32289;42.688;23.330;2023-01-15T16:07:13;4.30;99.90
46562;DHT22;32289;42.688;23.330;2023-01-15T16:10:57;4.20;99.90
46562;DHT22;32289;42.688;23.330;2023-01-15T16:14:39;4.20;99.90
46562;DHT22;32289;42.688;23.330;2023-01-15T16:18:42;4.10;99.90
46562;DHT22;32289;42.688;23.330;2023-01-15T16:22:25;4.00;99.90
46562;DHT22;32289;42.688;23.330;2023-01-15T16:26:19;3.90;99.90
46562;DHT22;32289;42.688;23.330;2023-01-15T16:30:02;3.80;99.90
46562;DHT22;32289;42.688;23.330;2023-01-15T16:33:43;3.80;99.90
46562;DHT22;32289;42.688;23.330;2023-01-15T16:37:28;3.80;99.90
46562;DHT22;32289;42.688;23.330;2023-01-15T16:41:27;3.80;99.90
46562;DHT22;32289;42.688;23.330;2023-01-15T16:45:23;3.70;99.90
46562;DHT22;32289;42.688;23.330;2023-01-15T16:53:05;3.70;99.90
46562;DHT22;32289;42.688;23.330;2023-01-15T16:56:48;3.60;99.90
46562;DHT22;32289;42.688;23.330;2023-01-15T17:00:30;3.60;99.90
46562;DHT22;32289;42.688;23.330;2023-01-15T17:04:39;3.60;99.90
46562;DHT22;32289;42.688;23.330;2023-01-15T17:08:26;3.50;99.90
46562;DHT22;32289;42.688;23.330;2023-01-15T17:12:23;3.50;99.90
46562;DHT22;32289;42.688;23.330;2023-01-15T17:16:16;3.30;99.90
46562;DHT22;32289;42.688;23.330;2023-01-15T17:19:57;3.20;99.90
46562;DHT22;32289;42.688;23.330;2023-01-15T17:23:39;3.30;99.90
46562;DHT22;32289;42.688;23.330;2023-01-15T17:27:22;3.20;99.90
46562;DHT22;32289;42.688;23.330;2023-01-15T17:31:03;3.20;99.90
46562;DHT22;32289;42.688;23.330;2023-01-15T17:34:44;3.00;99.90
46562;DHT22;32289;42.688;23.330;2023-01-15T17:38:25;3.00;99.90
46562;DHT22;32289;42.688;23.330;2023-01-15T17:42:12;3.00;99.90
46562;DHT22;32289;42.688;23.330;2023-01-15T17:45:53;3.00;99.90
46562;DHT22;32289;42.688;23.330;2023-01-15T17:49:34;3.00;99.90
46562;DHT22;32289;42.688;23.330;2023-01-15T17:53:15;2.90;99.90
46562;DHT22;32289;42.688;23.330;2023-01-15T17:56:56;2.70;99.90
46562;DHT22;32289;42.688;23.330;2023-01-15T18:00:55;2.70;99.90
46562;DHT22;32289;42.688;23.330;2023-01-15T18:04:55;2.80;99.90
46562;DHT22;32289;42.688;23.330;2023-01-15T18:08:56;2.70;99.90
46562;DHT22;32289;42.688;23.330;2023-01-15T18:12:37;2.60;99.90
46562;DHT22;32289;42.688;23.330;2023-01-15T18:16:18;2.60;99.90
46562;DHT22;32289;42.688;23.330;2023-01-15T18:19:59;2.40;99.90
46562;DHT22;32289;42.688;23.330;2023-01-15T18:23:39;2.40;99.90
46562;DHT22;32289;42.688;23.330;2023-01-15T18:27:20;2.60;99.90
46562;DHT22;32289;42.688;23.330;2023-01-15T18:31:09;2.60;99.90
46562;DHT22;32289;42.688;23.330;2023-01-15T18:34:50;2.60;99.90
46562;DHT22;32289;42.688;23.330;2023-01-15T18:38:34;2.50;99.90
46562;DHT22;32289;42.688;23.330;2023-01-15T18:42:15;2.50;99.90
46562;DHT22;32289;42.688;23.330;2023-01-15T18:45:55;2.70;99.90
46562;DHT22;32289;42.688;23.330;2023-01-15T18:49:54;2.70;99.90
46562;DHT22;32289;42.688;23.330;2023-01-15T18:53:36;2.60;99.90
46562;DHT22;32289;42.688;23.330;2023-01-15T18:57:17;2.40;99.90
46562;DHT22;32289;42.688;23.330;2023-01-15T19:01:05;2.30;99.90
46562;DHT22;32289;42.688;23.330;2023-01-15T19:04:47;2.60;99.90
46562;DHT22;32289;42.688;23.330;2023-01-15T19:08:27;2.50;99.90
46562;DHT22;32289;42.688;23.330;2023-01-15T19:12:08;2.70;99.90
46562;DHT22;32289;42.688;23.330;2023-01-15T19:15:49;2.50;99.90
46562;DHT22;32289;42.688;23.330;2023-01-15T19:19:49;2.60;99.90
46562;DHT22;32289;42.688;23.330;2023-01-15T19:23:29;2.70;99.90
46562;DHT22;32289;42.688;23.330;2023-01-15T19:27:10;2.70;99.90
46562;DHT22;32289;42.688;23.330;2023-01-15T19:30:51;2.60;99.90
46562;DHT22;32289;42.688;23.330;2023-01-15T19:34:50;2.40;99.90
46562;DHT22;32289;42.688;23.330;2023-01-15T19:38:32;2.20;99.90
46562;DHT22;32289;42.688;23.330;2023-01-15T19:42:16;2.10;99.90
46562;DHT22;32289;42.688;23.330;2023-01-15T19:46:15;2.10;99.90
46562;DHT22;32289;42.688;23.330;2023-01-15T19:50:18;2.20;99.90
46562;DHT22;32289;42.688;23.330;2023-01-15T19:53:59;2.10;99.90
46562;DHT22;32289;42.688;23.330;2023-01-15T19:57:44;2.20;99.90
46562;DHT22;32289;42.688;23.330;2023-01-15T20:01:25;2.20;99.90
46562;DHT22;32289;42.688;23.330;2023-01-15T20:05:07;2.20;99.90
46562;DHT22;32289;42.688;23.330;2023-01-15T20:08:48;2.20;99.90
46562;DHT22;32289;42.688;23.330;2023-01-15T20:12:29;2.20;99.90
46562;DHT22;32289;42.688;23.330;2023-01-15T20:16:28;2.30;99.90
46562;DHT22;32289;42.688;23.330;2023-01-15T20:20:10;2.20;99.90
46562;DHT22;32289;42.688;23.330;2023-01-15T20:23:51;2.10;99.90
46562;DHT22;32289;42.688;23.330;2023-01-15T20:27:33;2.10;99.90
46562;DHT22;32289;42.688;23.330;2023-01-15T20:31:17;2.10;99.90
46562;DHT22;32289;42.688;23.330;2023-01-15T20:34:58;2.10;99.90
46562;DHT22;32289;42.688;23.330;2023-01-15T20:38:39;2.10;99.90
46562;DHT22;32289;42.688;23.330;2023-01-15T20:42:19;2.10;99.90
46562;DHT22;32289;42.688;23.330;2023-01-15T20:46:18;2.00;99.90
46562;DHT22;32289;42.688;23.330;2023-01-15T20:49:59;2.00;99.90
46562;DHT22;32289;42.688;23.330;2023-01-15T20:53:40;1.90;99.90
46562;DHT22;32289;42.688;23.330;2023-01-15T20:57:22;1.90;99.90
46562;DHT22;32289;42.688;23.330;2023-01-15T21:01:05;1.90;99.90
46562;DHT22;32289;42.688;23.330;2023-01-15T21:04:48;1.90;99.90
46562;DHT22;32289;42.688;23.330;2023-01-15T21:08:28;1.80;99.90
46562;DHT22;32289;42.688;23.330;2023-01-15T21:12:09;1.80;99.90
46562;DHT22;32289;42.688;23.330;2023-01-15T21:15:59;1.70;99.90
46562;DHT22;32289;42.688;23.330;2023-01-15T21:19:40;1.70;99.90
46562;DHT22;32289;42.688;23.330;2023-01-15T21:23:21;1.70;99.90
46562;DHT22;32289;42.688;23.330;2023-01-15T21:27:02;1.70;99.90
46562;DHT22;32289;42.688;23.330;2023-01-15T21:30:43;1.70;99.90
46562;DHT22;32289;42.688;23.330;2023-01-15T21:34:24;1.60;99.90
46562;DHT22;32289;42.688;23.330;2023-01-15T21:38:06;1.60;99.90
46562;DHT22;32289;42.688;23.330;2023-01-15T21:41:47;1.60;99.90
46562;DHT22;32289;42.688;23.330;2023-01-15T21:45:46;1.60;99.90
46562;DHT22;32289;42.688;23.330;2023-01-15T21:49:27;1.50;99.90
46562;DHT22;32289;42.688;23.330;2023-01-15T21:53:08;1.50;99.90
46562;DHT22;32289;42.688;23.330;2023-01-15T21:56:49;1.50;99.90
46562;DHT22;32289;42.688;23.330;2023-01-15T22:00:29;1.50;99.90
46562;DHT22;32289;42.688;23.330;2023-01-15T22:04:10;1.50;99.90
46562;DHT22;32289;42.688;23.330;2023-01-15T22:07:51;1.50;99.90
46562;DHT22;32289;42.688;23.330;2023-01-15T22:11:32;1.30;99.90
46562;DHT22;32289;42.688;23.330;2023-01-15T22:15:26;1.20;99.90
46562;DHT22;32289;42.688;23.330;2023-01-15T22:19:08;1.20;99.90
46562;DHT22;32289;42.688;23.330;2023-01-15T22:22:49;1.20;99.90
46562;DHT22;32289;42.688;23.330;2023-01-15T22:26:30;1.10;99.90
46562;DHT22;32289;42.688;23.330;2023-01-15T22:30:12;1.00;99.90
46562;DHT22;32289;42.688;23.330;2023-01-15T22:33:57;1.00;99.90
46562;DHT22;32289;42.688;23.330;2023-01-15T22:37:37;1.10;99.90
46562;DHT22;32289;42.688;23.330;2023-01-15T22:41:18;1.10;99.90
46562;DHT22;32289;42.688;23.330;2023-01-15T22:45:19;1.10;99.90
46562;DHT22;32289;42.688;23.330;2023-01-15T22:49:02;1.20;99.90
46562;DHT22;32289;42.688;23.330;2023-01-15T22:52:43;1.20;99.90
46562;DHT22;32289;42.688;23.330;2023-01-15T22:56:24;1.20;99.90
46562;DHT22;32289;42.688;23.330;2023-01-15T23:00:05;1.20;99.90
46562;DHT22;32289;42.688;23.330;2023-01-15T23:03:46;1.20;99.90
46562;DHT22;32289;42.688;23.330;2023-01-15T23:07:27;1.20;99.90
46562;DHT22;32289;42.688;23.330;2023-01-15T23:11:10;1.20;99.90
46562;DHT22;32289;42.688;23.330;2023-01-15T23:14:51;1.10;99.90
46562;DHT22;32289;42.688;23.330;2023-01-15T23:18:32;1.10;99.90
46562;DHT22;32289;42.688;23.330;2023-01-15T23:22:14;1.10;99.90
46562;DHT22;32289;42.688;23.330;2023-01-15T23:25:54;1.10;99.90
46562;DHT22;32289;42.688;23.330;2023-01-15T23:29:35;1.10;99.90
46562;DHT22;32289;42.688;23.330;2023-01-15T23:33:16;1.10;99.90
46562;DHT22;32289;42.688;23.330;2023-01-15T23:36:56;1.10;99.90
46562;DHT22;32289;42.688;23.330;2023-01-15T23:40:41;1.10;99.90
46562;DHT22;32289;42.688;23.330;2023-01-15T23:44:22;1.10;99.90
46562;DHT22;32289;42.688;23.330;2023-01-15T23:48:20;1.00;99.90
46562;DHT22;32289;42.688;23.330;2023-01-15T23:52:02;1.00;99.90
46562;DHT22;32289;42.688;23.330;2023-01-15T23:55:42;1.00;99.90
46562;DHT22;32289;42.688;23.330;2023-01-15T23:59:23;1.10;99.90
